TRA47J EHEH-EBOS
Flight info
| Callsign | TRA47J |
|---|---|
| Flight time | 0h 28m |
| Altitude | 11000 |
| Route | WOODY N872 NIK/N0301F120 L179 COA |
| Aircraft | A20N/M-SDE2E3FGHIRWXY/LB1 |
Departure
| Time | 2026-04-28 18:42 |
|---|---|
| Airport | Eindhoven Airport (EHEH) |
Arrival
| Time | 2026-04-28 19:10 |
|---|---|
| Airport | Ostend-Bruges International Airport (EBOS) |
| Time | Latitude | Longitude | Altitude | Speed | Heading |
|---|---|---|---|---|---|
| 2026-04-28 18:07 | 51.45724 | 5.38934 | 85 ft | 0 kts | 125° |
| 2026-04-28 18:26 | 51.45734 | 5.38913 | 85 ft | 2 kts | 128° |
| 2026-04-28 18:26 | 51.45744 | 5.38893 | 87 ft | 2 kts | 132° |
| 2026-04-28 18:26 | 51.45756 | 5.38874 | 84 ft | 2 kts | 139° |
| 2026-04-28 18:27 | 51.45769 | 5.38858 | 85 ft | 2 kts | 152° |
| 2026-04-28 18:27 | 51.45784 | 5.38849 | 84 ft | 2 kts | 178° |
| 2026-04-28 18:27 | 51.45801 | 5.38853 | 84 ft | 2 kts | 205° |
| 2026-04-28 18:27 | 51.45809 | 5.38861 | 83 ft | 1 kts | 213° |
| 2026-04-28 18:28 | 51.45810 | 5.38861 | 83 ft | 0 kts | 214° |
| 2026-04-28 18:30 | 51.45814 | 5.38786 | 84 ft | 13 kts | 296° |
| 2026-04-28 18:30 | 51.45846 | 5.38712 | 85 ft | 3 kts | 306° |
| 2026-04-28 18:31 | 51.45887 | 5.38617 | 85 ft | 21 kts | 305° |
| 2026-04-28 18:31 | 51.45984 | 5.38401 | 84 ft | 17 kts | 305° |
| 2026-04-28 18:31 | 51.46013 | 5.38285 | 83 ft | 12 kts | 242° |
| 2026-04-28 18:31 | 51.45910 | 5.38168 | 84 ft | 21 kts | 214° |
| 2026-04-28 18:32 | 51.45760 | 5.38002 | 86 ft | 26 kts | 214° |
| 2026-04-28 18:32 | 51.45605 | 5.37828 | 83 ft | 28 kts | 215° |
| 2026-04-28 18:32 | 51.45459 | 5.37667 | 83 ft | 26 kts | 214° |
| 2026-04-28 18:32 | 51.45308 | 5.37495 | 84 ft | 23 kts | 216° |
| 2026-04-28 18:33 | 51.45170 | 5.37342 | 85 ft | 25 kts | 214° |
| 2026-04-28 18:33 | 51.45024 | 5.37178 | 83 ft | 27 kts | 216° |
| 2026-04-28 18:33 | 51.44870 | 5.37000 | 86 ft | 28 kts | 214° |
| 2026-04-28 18:33 | 51.44705 | 5.36819 | 85 ft | 29 kts | 214° |
| 2026-04-28 18:34 | 51.44535 | 5.36628 | 82 ft | 30 kts | 215° |
| 2026-04-28 18:34 | 51.44371 | 5.36444 | 84 ft | 23 kts | 215° |
| 2026-04-28 18:34 | 51.44234 | 5.36290 | 85 ft | 25 kts | 215° |
| 2026-04-28 18:34 | 51.44087 | 5.36124 | 82 ft | 27 kts | 215° |
| 2026-04-28 18:35 | 51.44038 | 5.36069 | 83 ft | 0 kts | 214° |
| 2026-04-28 18:35 | 51.44014 | 5.36054 | 85 ft | 9 kts | 195° |
| 2026-04-28 18:35 | 51.43974 | 5.36077 | 83 ft | 0 kts | 136° |
| 2026-04-28 18:37 | 51.43953 | 5.36117 | 81 ft | 14 kts | 126° |
| 2026-04-28 18:38 | 51.43947 | 5.36249 | 83 ft | 13 kts | 39° |
| 2026-04-28 18:38 | 51.43956 | 5.36259 | 82 ft | 0 kts | 36° |
| 2026-04-28 18:41 | 51.43961 | 5.36266 | 82 ft | 8 kts | 36° |
| 2026-04-28 18:41 | 51.44263 | 5.36599 | 85 ft | 98 kts | 34° |
| 2026-04-28 18:41 | 51.45028 | 5.37461 | 207 ft | 156 kts | 35° |
| 2026-04-28 18:42 | 51.45866 | 5.38407 | 1175 ft | 151 kts | 35° |
| 2026-04-28 18:42 | 51.46771 | 5.39433 | 1920 ft | 168 kts | 34° |
| 2026-04-28 18:42 | 51.47780 | 5.40556 | 2685 ft | 187 kts | 34° |
| 2026-04-28 18:42 | 51.48918 | 5.41826 | 3414 ft | 211 kts | 34° |
| 2026-04-28 18:43 | 51.50158 | 5.43217 | 4403 ft | 222 kts | 34° |
| 2026-04-28 18:43 | 51.51528 | 5.44496 | 5426 ft | 234 kts | 16° |
| 2026-04-28 18:43 | 51.53146 | 5.44604 | 6554 ft | 237 kts | 345° |
| 2026-04-28 18:43 | 51.54593 | 5.43358 | 7687 ft | 240 kts | 315° |
| 2026-04-28 18:44 | 51.55470 | 5.41078 | 8763 ft | 244 kts | 285° |
| 2026-04-28 18:44 | 51.54883 | 5.35652 | 10404 ft | 273 kts | 243° |
| 2026-04-28 18:44 | 51.53939 | 5.32797 | 10666 ft | 307 kts | 242° |
| 2026-04-28 18:45 | 51.52929 | 5.29609 | 10783 ft | 343 kts | 244° |
| 2026-04-28 18:45 | 51.51893 | 5.25938 | 10789 ft | 379 kts | 246° |
| 2026-04-28 18:45 | 51.50855 | 5.21859 | 10788 ft | 410 kts | 250° |
| 2026-04-28 18:45 | 51.50215 | 5.17261 | 10980 ft | 428 kts | 262° |
| 2026-04-28 18:46 | 51.49821 | 5.12594 | 12424 ft | 418 kts | 262° |
| 2026-04-28 18:46 | 51.49421 | 5.07977 | 13469 ft | 419 kts | 262° |
| 2026-04-28 18:46 | 51.48989 | 5.03267 | 13850 ft | 434 kts | 261° |
| 2026-04-28 18:46 | 51.48521 | 4.98393 | 13886 ft | 446 kts | 261° |
| 2026-04-28 18:47 | 51.48045 | 4.93589 | 13584 ft | 425 kts | 261° |
| 2026-04-28 18:47 | 51.47575 | 4.88981 | 12887 ft | 415 kts | 260° |
| 2026-04-28 18:47 | 51.47076 | 4.84487 | 12343 ft | 402 kts | 258° |
| 2026-04-28 18:47 | 51.46403 | 4.80222 | 11961 ft | 387 kts | 254° |
| 2026-04-28 18:48 | 51.45689 | 4.76140 | 11592 ft | 374 kts | 255° |
| 2026-04-28 18:48 | 51.45054 | 4.72167 | 11144 ft | 364 kts | 256° |
| 2026-04-28 18:48 | 51.44505 | 4.68296 | 11015 ft | 347 kts | 258° |
| 2026-04-28 18:48 | 51.44025 | 4.64620 | 11000 ft | 331 kts | 258° |
| 2026-04-28 18:49 | 51.43565 | 4.60939 | 11000 ft | 339 kts | 259° |
| 2026-04-28 18:49 | 51.43410 | 4.59685 | 11000 ft | 338 kts | 259° |
| 2026-04-28 18:49 | 51.42658 | 4.53563 | 11000 ft | 337 kts | 259° |
| 2026-04-28 18:49 | 51.42202 | 4.49859 | 11000 ft | 337 kts | 259° |
| 2026-04-28 18:50 | 51.41746 | 4.46176 | 11000 ft | 337 kts | 259° |
| 2026-04-28 18:50 | 51.41289 | 4.42489 | 11000 ft | 337 kts | 258° |
| 2026-04-28 18:50 | 51.40607 | 4.38911 | 11003 ft | 337 kts | 243° |
| 2026-04-28 18:50 | 51.39201 | 4.35992 | 11002 ft | 338 kts | 221° |
| 2026-04-28 18:51 | 51.37204 | 4.34034 | 11003 ft | 339 kts | 206° |
| 2026-04-28 18:51 | 51.35074 | 4.32422 | 11000 ft | 338 kts | 205° |
| 2026-04-28 18:51 | 51.32941 | 4.30830 | 11000 ft | 338 kts | 205° |
| 2026-04-28 18:51 | 51.30813 | 4.29237 | 11000 ft | 338 kts | 205° |
| 2026-04-28 18:52 | 51.28682 | 4.27631 | 11000 ft | 338 kts | 205° |
| 2026-04-28 18:52 | 51.26566 | 4.25966 | 10989 ft | 338 kts | 212° |
| 2026-04-28 18:52 | 51.24828 | 4.23474 | 11001 ft | 338 kts | 233° |
| 2026-04-28 18:52 | 51.23804 | 4.20126 | 10999 ft | 337 kts | 256° |
| 2026-04-28 18:53 | 51.23423 | 4.16441 | 11000 ft | 337 kts | 262° |
| 2026-04-28 18:53 | 51.23128 | 4.12725 | 11000 ft | 337 kts | 263° |
| 2026-04-28 18:53 | 51.22838 | 4.09016 | 11000 ft | 337 kts | 263° |
| 2026-04-28 18:53 | 51.22537 | 4.05305 | 11000 ft | 337 kts | 262° |
| 2026-04-28 18:54 | 51.22224 | 4.01597 | 11000 ft | 337 kts | 262° |
| 2026-04-28 18:54 | 51.21903 | 3.97884 | 11000 ft | 337 kts | 262° |
| 2026-04-28 18:54 | 51.21582 | 3.94229 | 11000 ft | 337 kts | 262° |
| 2026-04-28 18:54 | 51.21255 | 3.90527 | 11000 ft | 337 kts | 262° |
| 2026-04-28 18:55 | 51.20928 | 3.86834 | 11000 ft | 337 kts | 262° |
| 2026-04-28 18:55 | 51.20705 | 3.84325 | 11000 ft | 337 kts | 262° |
| 2026-04-28 18:55 | 51.20267 | 3.79421 | 11000 ft | 337 kts | 262° |
| 2026-04-28 18:55 | 51.19931 | 3.75669 | 11000 ft | 337 kts | 262° |
| 2026-04-28 18:56 | 51.19603 | 3.72018 | 11000 ft | 337 kts | 262° |
| 2026-04-28 18:56 | 51.19269 | 3.68316 | 11000 ft | 337 kts | 262° |
| 2026-04-28 18:56 | 51.18934 | 3.64618 | 11000 ft | 337 kts | 262° |
| 2026-04-28 18:56 | 51.18598 | 3.60922 | 11000 ft | 337 kts | 262° |
| 2026-04-28 18:57 | 51.18262 | 3.57231 | 11000 ft | 337 kts | 262° |
| 2026-04-28 18:57 | 51.17922 | 3.53520 | 11000 ft | 337 kts | 262° |
| 2026-04-28 18:57 | 51.17583 | 3.49828 | 11000 ft | 337 kts | 262° |
| 2026-04-28 18:57 | 51.17241 | 3.46123 | 11000 ft | 337 kts | 262° |
| 2026-04-28 18:58 | 51.16899 | 3.42428 | 11000 ft | 337 kts | 262° |
| 2026-04-28 18:58 | 51.16556 | 3.38730 | 11000 ft | 337 kts | 262° |
| 2026-04-28 18:58 | 51.16211 | 3.35035 | 11000 ft | 337 kts | 262° |
| 2026-04-28 18:58 | 51.15866 | 3.31340 | 11000 ft | 337 kts | 262° |
| 2026-04-28 18:59 | 51.15519 | 3.27646 | 11000 ft | 337 kts | 261° |
| 2026-04-28 18:59 | 51.15171 | 3.23955 | 11000 ft | 337 kts | 261° |
| 2026-04-28 18:59 | 51.14834 | 3.20252 | 11000 ft | 337 kts | 262° |
| 2026-04-28 18:59 | 51.14507 | 3.16574 | 10956 ft | 336 kts | 262° |
| 2026-04-28 19:00 | 51.14179 | 3.12893 | 10640 ft | 334 kts | 262° |
| 2026-04-28 19:00 | 51.13803 | 3.09253 | 10213 ft | 331 kts | 261° |
| 2026-04-28 19:00 | 51.13448 | 3.05740 | 10018 ft | 312 kts | 261° |
| 2026-04-28 19:00 | 51.13116 | 3.02442 | 9830 ft | 292 kts | 261° |
| 2026-04-28 19:01 | 51.12799 | 2.99297 | 9426 ft | 283 kts | 261° |
| 2026-04-28 19:01 | 51.12496 | 2.96302 | 9233 ft | 266 kts | 261° |
| 2026-04-28 19:01 | 51.12207 | 2.93445 | 8847 ft | 259 kts | 261° |
| 2026-04-28 19:01 | 51.11922 | 2.90628 | 8346 ft | 257 kts | 261° |
| 2026-04-28 19:02 | 51.11638 | 2.87829 | 7835 ft | 256 kts | 261° |
| 2026-04-28 19:02 | 51.11355 | 2.85042 | 7345 ft | 254 kts | 261° |
| 2026-04-28 19:02 | 51.11076 | 2.82299 | 7079 ft | 251 kts | 261° |
| 2026-04-28 19:02 | 51.10794 | 2.79529 | 6995 ft | 253 kts | 261° |
| 2026-04-28 19:03 | 51.10517 | 2.76808 | 6999 ft | 253 kts | 261° |
| 2026-04-28 19:03 | 51.10232 | 2.74020 | 6959 ft | 251 kts | 261° |
| 2026-04-28 19:03 | 51.09953 | 2.71287 | 6636 ft | 249 kts | 261° |
| 2026-04-28 19:03 | 51.09683 | 2.68635 | 6406 ft | 239 kts | 261° |
| 2026-04-28 19:04 | 51.09423 | 2.66097 | 6181 ft | 228 kts | 261° |
| 2026-04-28 19:04 | 51.09170 | 2.63627 | 5774 ft | 226 kts | 261° |
| 2026-04-28 19:04 | 51.08930 | 2.61118 | 5343 ft | 225 kts | 267° |
| 2026-04-28 19:04 | 51.09241 | 2.58760 | 4887 ft | 224 kts | 300° |
| 2026-04-28 19:05 | 51.10321 | 2.57026 | 4449 ft | 224 kts | 333° |
| 2026-04-28 19:05 | 51.11817 | 2.56393 | 4107 ft | 223 kts | 351° |
| 2026-04-28 19:05 | 51.13350 | 2.56053 | 3783 ft | 222 kts | 352° |
| 2026-04-28 19:05 | 51.14875 | 2.56114 | 3448 ft | 222 kts | 18° |
| 2026-04-28 19:06 | 51.16131 | 2.57471 | 3099 ft | 221 kts | 56° |
| 2026-04-28 19:06 | 51.16512 | 2.58950 | 2914 ft | 218 kts | 84° |
| 2026-04-28 19:06 | 51.16486 | 2.62073 | 2811 ft | 202 kts | 91° |
| 2026-04-28 19:06 | 51.16506 | 2.63531 | 2815 ft | 200 kts | 85° |
| 2026-04-28 19:07 | 51.16699 | 2.65751 | 2817 ft | 201 kts | 79° |
| 2026-04-28 19:07 | 51.17006 | 2.67912 | 2839 ft | 198 kts | 76° |
| 2026-04-28 19:07 | 51.17336 | 2.70057 | 2736 ft | 202 kts | 76° |
| 2026-04-28 19:07 | 51.17686 | 2.72235 | 2325 ft | 199 kts | 76° |
| 2026-04-28 19:08 | 51.17986 | 2.74308 | 2013 ft | 189 kts | 76° |
| 2026-04-28 19:08 | 51.18289 | 2.76267 | 1703 ft | 174 kts | 77° |
| 2026-04-28 19:08 | 51.18559 | 2.78114 | 1256 ft | 170 kts | 77° |
| 2026-04-28 19:08 | 51.18831 | 2.79925 | 876 ft | 164 kts | 76° |
| 2026-04-28 19:09 | 51.19093 | 2.81645 | 634 ft | 157 kts | 76° |
| 2026-04-28 19:09 | 51.19353 | 2.83324 | 375 ft | 151 kts | 75° |
| 2026-04-28 19:09 | 51.19599 | 2.84893 | 161 ft | 143 kts | 76° |
| 2026-04-28 19:09 | 51.19822 | 2.86377 | 15 ft | 130 kts | 76° |
| 2026-04-28 19:10 | 51.19969 | 2.87371 | 16 ft | 49 kts | 77° |
| 2026-04-28 19:10 | 51.20008 | 2.87623 | 13 ft | 30 kts | 76° |
| 2026-04-28 19:10 | 51.20069 | 2.88026 | 12 ft | 30 kts | 77° |
| 2026-04-28 19:10 | 51.20128 | 2.88314 | 11 ft | 20 kts | 39° |
| 2026-04-28 19:11 | 51.20188 | 2.88318 | 13 ft | 7 kts | 337° |
| 2026-04-28 19:11 | 51.20193 | 2.88314 | 13 ft | 0 kts | 335° |
| 2026-04-28 19:11 | 51.20205 | 2.88304 | 13 ft | 0 kts | 330° |
| 2026-04-28 19:12 | 51.20246 | 2.88214 | 13 ft | 16 kts | 295° |
| 2026-04-28 19:12 | 51.20236 | 2.88006 | 13 ft | 23 kts | 256° |
| 2026-04-28 19:12 | 51.20201 | 2.87787 | 13 ft | 20 kts | 256° |
| 2026-04-28 19:13 | 51.20189 | 2.87608 | 15 ft | 11 kts | 311° |
| 2026-04-28 19:13 | 51.20285 | 2.87566 | 13 ft | 18 kts | 347° |
| 2026-04-28 19:13 | 51.20311 | 2.87424 | 15 ft | 17 kts | 244° |
| 2026-04-28 19:13 | 51.20287 | 2.87237 | 14 ft | 19 kts | 258° |
| 2026-04-28 19:14 | 51.20317 | 2.87134 | 14 ft | 12 kts | 335° |
| 2026-04-28 19:14 | 51.20366 | 2.87115 | 14 ft | 0 kts | 347° |